createdAt,value
2023-06-29T00:01:24.001Z,98561.30
2023-06-29T00:03:54.050Z,98553.98
2023-06-29T00:06:24.159Z,98557.42
2023-06-29T00:08:54.087Z,98556.25
2023-06-29T00:11:24.238Z,98554.13
2023-06-29T00:13:54.238Z,98554.19
2023-06-29T00:16:24.136Z,98553.38
2023-06-29T00:18:57.096Z,98551.96
2023-06-29T00:21:29.658Z,98548.81
2023-06-29T00:23:59.728Z,98551.35
2023-06-29T00:26:31.506Z,98547.15
2023-06-29T00:29:01.372Z,98548.08
2023-06-29T00:31:31.252Z,98545.66
2023-06-29T00:34:01.067Z,98543.30
2023-06-29T00:36:31.109Z,98538.93
2023-06-29T00:39:02.966Z,98537.63
2023-06-29T00:41:34.288Z,98533.02
2023-06-29T00:44:04.475Z,98529.00
2023-06-29T00:46:34.428Z,98528.12
2023-06-29T00:49:04.192Z,98527.77
2023-06-29T00:51:34.005Z,98524.40
2023-06-29T00:54:04.233Z,98523.81
2023-06-29T00:56:35.100Z,98517.07
2023-06-29T00:59:04.812Z,98512.23
2023-06-29T01:01:35.388Z,98508.60
2023-06-29T01:04:05.855Z,98505.16
2023-06-29T01:06:38.711Z,98504.58
2023-06-29T01:09:09.412Z,98501.45
2023-06-29T01:11:40.401Z,98497.96
2023-06-29T01:14:12.080Z,98510.54
2023-06-29T01:16:42.676Z,98504.92
2023-06-29T01:19:15.108Z,98503.65
2023-06-29T01:21:49.353Z,98498.17
2023-06-29T01:24:19.081Z,98501.88
2023-06-29T01:26:50.350Z,98498.02
2023-06-29T01:29:26.410Z,98502.30
2023-06-29T01:32:01.361Z,98496.77
2023-06-29T01:34:32.240Z,98491.20
2023-06-29T01:37:06.359Z,98489.55
2023-06-29T01:39:40.152Z,98491.17
2023-06-29T01:42:12.959Z,98489.33
2023-06-29T01:44:42.882Z,98489.27
2023-06-29T01:47:12.920Z,98489.42
2023-06-29T01:49:42.876Z,98490.83
2023-06-29T01:52:12.696Z,98491.36
2023-06-29T01:54:42.763Z,98488.07
2023-06-29T01:57:13.984Z,98486.38
2023-06-29T01:59:44.534Z,98481.13
2023-06-29T02:02:15.533Z,98480.54
2023-06-29T02:04:45.411Z,98477.02
2023-06-29T02:07:15.590Z,98470.65
2023-06-29T02:09:45.313Z,98475.53
2023-06-29T02:12:15.689Z,98473.17
2023-06-29T02:14:45.552Z,98469.77
2023-06-29T02:17:15.762Z,98467.68
2023-06-29T02:19:45.622Z,98470.15
2023-06-29T02:22:15.674Z,98470.23
2023-06-29T02:24:45.477Z,98474.50
2023-06-29T02:27:15.544Z,98473.75
2023-06-29T02:29:47.461Z,98472.15
2023-06-29T02:32:17.237Z,98470.88
2023-06-29T02:34:47.315Z,98467.05
2023-06-29T02:37:18.038Z,98471.56
2023-06-29T02:39:48.340Z,98468.70
2023-06-29T11:30:20.459Z,98507.09
2023-06-29T11:32:53.250Z,98501.85
2023-06-29T11:35:23.657Z,98494.61
2023-06-29T11:37:58.775Z,98499.16
2023-06-29T11:40:29.150Z,98489.17
2023-06-29T11:42:59.344Z,98489.95
2023-06-29T11:45:29.204Z,98488.34
2023-06-29T11:47:59.065Z,98484.49
2023-06-29T11:50:31.658Z,98484.66
2023-06-29T11:53:01.781Z,98478.70
2023-06-29T11:55:31.997Z,98477.75
2023-06-29T11:58:02.748Z,98471.05
2023-06-29T12:00:33.748Z,98468.37
2023-06-29T12:03:10.606Z,98466.15
2023-06-29T12:05:45.213Z,98475.34
2023-06-29T12:08:16.935Z,98475.56
2023-06-29T12:10:47.102Z,98481.30
2023-06-29T12:13:17.049Z,98481.30
2023-06-29T12:18:21.590Z,98473.02
2023-06-29T12:20:51.837Z,98469.45
2023-06-29T12:36:35.467Z,98474.81
2023-06-29T12:39:05.866Z,98473.86
2023-06-29T12:41:37.619Z,98471.10
2023-06-29T12:44:07.785Z,98468.80
2023-06-29T12:46:38.157Z,98468.63
2023-06-29T12:49:08.703Z,98466.95
2023-06-29T12:51:39.033Z,98465.87
2023-06-29T12:54:11.123Z,98460.60
2023-06-29T13:03:16.288Z,98457.55
2023-06-29T13:05:50.886Z,98454.87
2023-06-29T13:08:21.155Z,98454.52
2023-06-29T13:10:53.037Z,98453.39
2023-06-29T13:13:23.415Z,98451.94
2023-06-29T13:15:53.209Z,98453.45
2023-06-29T13:18:23.296Z,98454.20
2023-06-29T13:20:53.435Z,98456.66
2023-06-29T13:23:23.268Z,98453.67
2023-06-29T13:25:53.234Z,98456.52
2023-06-29T13:28:23.039Z,98455.30
2023-06-29T13:30:52.954Z,98453.62
2023-06-29T13:33:24.182Z,98457.48
2023-06-29T13:35:53.909Z,98452.16
2023-06-29T13:38:24.486Z,98451.42
2023-06-29T13:40:54.254Z,98452.29
2023-06-29T13:43:24.166Z,98454.73
2023-06-29T13:45:55.353Z,98448.76
2023-06-29T13:48:25.419Z,98445.98
2023-06-29T13:50:55.335Z,98452.38
2023-06-29T13:53:25.348Z,98461.81
2023-06-29T13:55:55.471Z,98461.66
2023-06-29T13:58:25.275Z,98461.33
2023-06-29T14:00:55.415Z,98464.20
2023-06-29T14:03:25.505Z,98470.35
2023-06-29T14:05:55.315Z,98462.08
2023-06-29T14:08:25.967Z,98463.50
2023-06-29T14:10:55.920Z,98467.71
2023-06-29T14:13:25.830Z,98468.45
2023-06-29T14:15:55.738Z,98468.49
2023-06-29T14:18:26.147Z,98468.98
2023-06-29T14:20:56.382Z,98467.52
2023-06-29T14:23:26.951Z,98465.58
2023-06-29T14:25:56.750Z,98463.26
2023-06-29T14:28:26.966Z,98463.70
2023-06-29T14:30:57.734Z,98465.41
2023-06-29T14:33:29.792Z,98472.17
2023-06-29T14:41:21.340Z,98471.38
2023-06-29T14:43:51.504Z,98476.20
2023-06-29T14:46:21.465Z,98478.50
2023-06-29T14:48:53.961Z,98480.08
2023-06-29T14:51:23.737Z,98481.23
2023-06-29T14:53:53.666Z,98482.67
2023-06-29T14:56:24.964Z,98474.46
2023-06-29T14:58:54.975Z,98480.09
2023-06-29T15:01:24.890Z,98473.73
2023-06-29T15:03:55.484Z,98477.46
2023-06-29T15:06:25.467Z,98476.79
2023-06-29T15:08:55.565Z,98475.54
2023-06-29T15:11:27.133Z,98473.83
2023-06-29T15:13:57.126Z,98478.90
2023-06-29T15:16:28.919Z,98470.17
2023-06-29T15:19:00.550Z,98474.31
2023-06-29T15:21:30.556Z,98477.63
2023-06-29T15:24:00.695Z,98485.23
2023-06-29T15:26:30.598Z,98484.90
2023-06-29T15:29:00.530Z,98487.05
2023-06-29T15:31:30.679Z,98490.77
2023-06-29T15:34:00.675Z,98493.91
2023-06-29T15:36:30.528Z,98495.68
2023-06-29T15:39:00.375Z,98496.77
2023-06-29T15:41:30.389Z,98495.36
2023-06-29T15:44:01.805Z,98488.11
2023-06-29T15:46:32.824Z,98487.69
2023-06-29T15:49:02.788Z,98492.27
2023-06-29T15:51:32.839Z,98493.41
2023-06-29T15:54:02.708Z,98493.45
2023-06-29T15:56:32.697Z,98500.53
2023-06-29T15:59:02.665Z,98506.73
2023-06-29T16:01:32.596Z,98506.75
2023-06-29T16:04:02.397Z,98506.37
2023-06-29T16:06:32.778Z,98507.73
2023-06-29T16:09:02.783Z,98506.98
2023-06-29T16:11:34.031Z,98500.07
2023-06-29T16:14:04.275Z,98506.59
2023-06-29T16:16:34.265Z,98512.30
2023-06-29T16:19:04.078Z,98514.63
2023-06-29T16:21:34.053Z,98515.31
2023-06-29T16:24:04.383Z,98511.14
2023-06-29T16:26:35.766Z,98509.41
2023-06-29T16:29:06.960Z,98511.30
2023-06-29T16:31:37.005Z,98506.95
2023-06-29T16:34:07.584Z,98501.81
2023-06-29T16:36:37.855Z,98505.08
2023-06-29T16:39:08.609Z,98506.20
2023-06-29T16:41:41.936Z,98507.63
2023-06-29T16:44:11.673Z,98512.69
2023-06-29T16:46:41.472Z,98510.39
2023-06-29T16:49:11.743Z,98509.42
2023-06-29T16:51:42.026Z,98514.30
2023-06-29T16:54:12.005Z,98520.23
2023-06-29T16:56:42.610Z,98530.92
2023-06-29T16:59:12.507Z,98532.88
2023-06-29T17:01:43.135Z,98533.89
2023-06-29T17:04:12.965Z,98540.70
2023-06-29T17:06:43.561Z,98536.77
2023-06-29T17:09:13.543Z,98538.17
2023-06-29T17:11:44.953Z,98534.52
2023-06-29T17:14:15.005Z,98532.51
2023-06-29T17:16:45.655Z,98538.99
2023-06-29T17:19:16.031Z,98539.06
2023-06-29T17:21:46.199Z,98530.23
2023-06-29T17:24:16.901Z,98527.48
2023-06-29T17:26:47.278Z,98530.33
2023-06-29T17:29:17.567Z,98531.66
2023-06-29T17:31:47.341Z,98530.29
2023-06-29T17:34:17.607Z,98531.27
2023-06-29T17:36:50.228Z,98538.12
2023-06-29T17:39:22.039Z,98539.81
2023-06-29T17:41:51.846Z,98539.62
2023-06-29T17:44:22.291Z,98534.42
2023-06-29T17:46:52.622Z,98534.87
2023-06-29T17:49:27.741Z,98537.65
2023-06-29T17:51:57.706Z,98545.86
2023-06-29T17:54:27.572Z,98540.95
2023-06-29T17:56:57.661Z,98538.70
2023-06-29T17:59:27.434Z,98531.49
2023-06-29T18:01:59.097Z,98528.70
2023-06-29T18:04:29.322Z,98528.01
2023-06-29T18:07:01.617Z,98525.44
2023-06-29T18:09:32.400Z,98525.68
2023-06-29T18:12:02.279Z,98518.11
2023-06-29T18:14:32.327Z,98516.81
2023-06-29T18:17:04.608Z,98519.81
2023-06-29T18:19:34.598Z,98529.92
2023-06-29T18:22:05.980Z,98535.79
2023-06-29T18:24:36.989Z,98535.10
2023-06-29T18:27:07.970Z,98534.50
2023-06-29T18:29:38.682Z,98532.45
2023-06-29T18:32:10.090Z,98532.11
2023-06-29T18:34:43.979Z,98530.96
2023-06-29T18:37:14.037Z,98533.70
2023-06-29T18:39:44.183Z,98540.94
2023-06-29T18:42:15.828Z,98541.84
2023-06-29T18:44:46.683Z,98546.05
2023-06-29T18:47:16.808Z,98555.75
2023-06-29T18:49:52.279Z,98561.45
2023-06-29T18:52:22.680Z,98565.83
2023-06-29T18:54:55.486Z,98566.73
2023-06-29T18:57:25.325Z,98569.23
2023-06-29T18:59:55.330Z,98569.45
2023-06-29T19:02:25.330Z,98567.95
2023-06-29T19:04:55.350Z,98573.42
2023-06-29T19:07:26.405Z,98570.55
2023-06-29T19:09:56.284Z,98557.81
2023-06-29T19:12:26.398Z,98564.95
2023-06-29T19:14:56.600Z,98571.59
2023-06-29T19:17:26.475Z,98571.14
2023-06-29T19:19:56.931Z,98566.93
2023-06-29T19:22:26.938Z,98571.63
2023-06-29T19:24:56.815Z,98578.18
2023-06-29T19:27:26.707Z,98580.29
2023-06-29T19:29:56.756Z,98581.86
2023-06-29T19:32:26.523Z,98583.56
2023-06-29T19:34:56.481Z,98585.42
2023-06-29T19:37:27.925Z,98581.91
2023-06-29T19:39:58.189Z,98580.65
2023-06-29T19:42:28.035Z,98581.49
2023-06-29T19:44:58.002Z,98577.36
2023-06-29T19:47:27.942Z,98571.73
2023-06-29T19:49:57.946Z,98566.41
2023-06-29T19:52:27.793Z,98572.91
2023-06-29T19:54:58.754Z,98568.38
2023-06-29T19:57:28.927Z,98569.34
2023-06-29T19:59:59.101Z,98566.95
2023-06-29T20:02:29.036Z,98570.41
2023-06-29T20:04:58.952Z,98570.55
2023-06-29T20:07:28.977Z,98571.17
2023-06-29T20:09:58.847Z,98581.70
2023-06-29T20:12:29.186Z,98572.55
2023-06-29T20:14:59.071Z,98572.16
2023-06-29T20:17:29.044Z,98570.30
2023-06-29T20:19:59.478Z,98569.80
2023-06-29T20:22:29.581Z,98570.33
2023-06-29T20:24:59.784Z,98570.13
2023-06-29T20:27:30.004Z,98563.60
2023-06-29T20:30:00.143Z,98560.31
2023-06-29T20:32:30.141Z,98565.64
2023-06-29T20:35:00.482Z,98577.70
2023-06-29T20:37:30.445Z,98580.12
2023-06-29T20:40:00.261Z,98588.06
2023-06-29T20:42:30.096Z,98589.04
2023-06-29T20:45:03.907Z,98582.45
2023-06-29T20:47:34.709Z,98578.27
2023-06-29T20:50:04.992Z,98575.48
2023-06-29T20:52:35.308Z,98573.13
2023-06-29T20:55:06.341Z,98573.66
2023-06-29T20:57:38.431Z,98575.30
2023-06-29T21:00:13.005Z,98572.44
2023-06-29T21:02:43.115Z,98570.77
2023-06-29T21:05:14.024Z,98570.98
2023-06-29T21:07:44.996Z,98569.05
2023-06-29T21:10:15.233Z,98556.02
2023-06-29T21:12:49.915Z,98554.67
2023-06-29T21:15:20.526Z,98558.36
2023-06-29T21:17:52.117Z,98550.44
2023-06-29T21:20:23.302Z,98552.34
2023-06-29T21:22:54.215Z,98549.38
2023-06-29T21:25:25.199Z,98550.52
2023-06-29T21:27:56.077Z,98546.46
2023-06-29T21:30:26.136Z,98545.02
2023-06-29T21:32:57.154Z,98549.48
2023-06-29T21:35:27.816Z,98551.91
2023-06-29T21:37:58.576Z,98555.48
2023-06-29T21:40:28.508Z,98552.29
2023-06-29T21:42:58.533Z,98549.59
2023-06-29T21:45:28.753Z,98548.02
2023-06-29T21:47:58.728Z,98543.96
2023-06-29T21:50:31.071Z,98551.08
2023-06-29T21:53:01.105Z,98558.56
2023-06-29T21:55:31.157Z,98560.48
2023-06-29T21:58:01.082Z,98560.71
2023-06-29T22:00:31.862Z,98563.46
2023-06-29T22:03:05.709Z,98563.63
2023-06-29T22:05:35.910Z,98561.52
2023-06-29T22:08:06.617Z,98564.23
2023-06-29T22:10:36.579Z,98562.23
2023-06-29T22:13:06.369Z,98560.99
2023-06-29T22:15:38.286Z,98556.02
2023-06-29T22:18:08.352Z,98555.66
2023-06-29T22:20:38.317Z,98552.52
2023-06-29T22:23:08.298Z,98547.79
2023-06-29T22:25:38.177Z,98548.77
2023-06-29T22:28:08.242Z,98551.55
2023-06-29T22:30:37.987Z,98551.25
2023-06-29T22:33:07.901Z,98553.20
2023-06-29T22:35:38.082Z,98556.25
2023-06-29T22:38:09.865Z,98552.34
2023-06-29T22:40:40.186Z,98560.48
2023-06-29T22:43:10.292Z,98560.44
2023-06-29T22:45:40.062Z,98560.48
2023-06-29T22:48:10.008Z,98556.48
2023-06-29T22:50:40.328Z,98564.95
2023-06-29T22:53:10.511Z,98567.15
2023-06-29T22:55:40.551Z,98571.19
2023-06-29T22:58:10.700Z,98572.47
2023-06-29T23:00:40.596Z,98579.14
2023-06-29T23:03:10.783Z,98580.51
2023-06-29T23:05:41.324Z,98584.67
2023-06-29T23:08:12.430Z,98587.19
2023-06-29T23:10:43.198Z,98592.46
2023-06-29T23:13:15.629Z,98587.88
2023-06-29T23:15:46.227Z,98582.37
2023-06-29T23:18:16.748Z,98582.13
2023-06-29T23:20:46.922Z,98581.31
2023-06-29T23:23:17.532Z,98584.02
2023-06-29T23:25:48.158Z,98580.89
2023-06-29T23:28:19.130Z,98577.25
2023-06-29T23:30:49.081Z,98578.04
2023-06-29T23:33:18.995Z,98577.74
2023-06-29T23:35:49.352Z,98581.67
2023-06-29T23:38:19.541Z,98575.81
2023-06-29T23:40:49.253Z,98575.47
2023-06-29T23:43:18.956Z,98577.35
2023-06-29T23:45:49.255Z,98581.67
2023-06-29T23:48:19.355Z,98582.02
2023-06-29T23:50:49.361Z,98580.73
2023-06-29T23:53:19.398Z,98575.34
2023-06-29T23:55:49.892Z,98584.20
2023-06-29T23:58:19.909Z,98580.42
